Time;durP1;ratioP1;P1;durP2;ratioP2;P2;SDS_P1;SDS_P2;PMS_P1;PMS_P2;Temp;Humidity;BMP_temperature;BMP_pressure;BME280_temperature;BME280_humidity;BME280_pressure;Samples;Min_cycle;Max_cycle;Signal;HPM_P1;HPM_P2
2023/05/26 00:00:09;;;;;;;28.02;6.45;;;11.50;87.20;;;;;;4938616;28;87763;-76
2023/05/26 00:02:36;;;;;;;35.90;7.20;;;11.50;85.90;;;;;;4937934;28;92337;-76
2023/05/26 00:05:06;;;;;;;21.67;5.88;;;11.50;86.40;;;;;;4937029;28;88646;-76
2023/05/26 00:07:32;;;;;;;34.70;7.25;;;11.40;86.40;;;;;;4936923;28;88400;-77
2023/05/26 00:09:58;;;;;;;31.27;5.93;;;11.40;86.50;;;;;;4937042;28;88971;-76
2023/05/26 00:12:24;;;;;;;30.70;6.75;;;11.30;86.40;;;;;;4936268;28;87813;-76
2023/05/26 00:14:50;;;;;;;34.90;6.68;;;11.30;86.70;;;;;;4938310;28;87732;-76
2023/05/26 00:17:19;;;;;;;30.63;6.63;;;11.30;86.60;;;;;;4937522;28;87408;-76
2023/05/26 00:19:44;;;;;;;36.83;6.57;;;11.30;86.80;;;;;;4937672;28;87311;-76
2023/05/26 00:22:11;;;;;;;28.48;5.55;;;11.20;87.00;;;;;;4919902;28;89484;-76
2023/05/26 00:24:37;;;;;;;29.27;6.75;;;11.20;87.20;;;;;;4936984;28;88816;-76
2023/05/26 00:27:03;;;;;;;29.00;6.57;;;11.20;87.40;;;;;;4938695;28;88340;-76
2023/05/26 00:29:29;;;;;;;27.67;5.95;;;11.20;87.90;;;;;;4936899;28;87570;-76
2023/05/26 00:31:55;;;;;;;28.15;6.43;;;11.10;88.30;;;;;;4919858;28;89895;-77
2023/05/26 00:34:21;;;;;;;36.50;7.18;;;11.10;87.70;;;;;;4935335;28;89381;-76
2023/05/26 00:36:46;;;;;;;32.58;6.65;;;11.10;87.90;;;;;;4936198;28;88284;-76
2023/05/26 00:39:12;;;;;;;32.08;6.82;;;11.00;88.20;;;;;;4936777;28;87707;-76
2023/05/26 00:41:38;;;;;;;28.50;5.88;;;11.00;87.70;;;;;;4936912;28;88793;-76
2023/05/26 00:44:03;;;;;;;36.42;6.85;;;11.00;88.00;;;;;;4936690;28;88327;-77
2023/05/26 00:46:30;;;;;;;26.77;5.60;;;10.90;87.70;;;;;;4936711;28;87579;-76
2023/05/26 00:48:56;;;;;;;29.92;5.80;;;10.90;88.60;;;;;;4937297;28;87247;-76
2023/05/26 00:51:22;;;;;;;36.15;6.25;;;10.80;88.40;;;;;;4937146;28;87575;-76
2023/05/26 00:53:48;;;;;;;29.30;6.22;;;10.80;88.50;;;;;;4936353;28;88377;-76
2023/05/26 00:56:18;;;;;;;32.58;6.22;;;10.80;88.40;;;;;;4936108;28;88486;-76
2023/05/26 00:58:44;;;;;;;29.65;6.53;;;10.80;89.00;;;;;;4936398;28;88675;-76
2023/05/26 01:01:10;;;;;;;37.67;7.32;;;10.80;88.70;;;;;;4937276;28;87664;-76
2023/05/26 01:03:39;;;;;;;30.83;6.35;;;10.70;88.50;;;;;;4936860;28;87713;-77
2023/05/26 01:06:05;;;;;;;28.17;6.97;;;10.70;89.10;;;;;;4936861;28;88758;-77
2023/05/26 01:08:32;;;;;;;26.70;6.03;;;10.70;89.30;;;;;;4936310;28;87503;-76
2023/05/26 01:11:08;;;;;;;32.63;6.47;;;10.60;89.90;;;;;;4918022;28;89729;-76
2023/05/26 01:13:52;;;;;;;36.28;7.40;;;10.60;89.90;;;;;;4935198;28;88557;-76
2023/05/26 01:16:22;;;;;;;20.80;5.88;;;10.60;89.50;;;;;;4937138;28;88476;-76
2023/05/26 01:18:57;;;;;;;34.20;6.57;;;10.60;89.80;;;;;;4936692;28;87669;-76
2023/05/26 01:21:27;;;;;;;29.52;6.38;;;10.50;90.10;;;;;;4936443;28;87921;-76
2023/05/26 01:24:20;;;;;;;29.83;5.55;;;10.50;90.20;;;;;;4936211;28;89178;-76
2023/05/26 01:26:46;;;;;;;29.95;6.28;;;10.40;90.10;;;;;;4918602;28;96554;-77
2023/05/26 01:29:15;;;;;;;33.85;7.00;;;10.40;90.30;;;;;;4936598;28;87538;-77
2023/05/26 01:31:41;;;;;;;29.63;7.40;;;10.40;90.30;;;;;;4936045;28;87911;-76
2023/05/26 01:34:07;;;;;;;33.17;5.82;;;10.40;90.30;;;;;;4935023;28;88844;-76
2023/05/26 01:36:33;;;;;;;31.38;5.88;;;10.30;90.60;;;;;;4936152;28;88289;-76
2023/05/26 01:38:59;;;;;;;28.88;6.25;;;10.30;90.80;;;;;;4937196;28;88130;-76
2023/05/26 01:41:47;;;;;;;28.67;5.82;;;10.30;90.70;;;;;;4918711;28;88766;-76
2023/05/26 01:44:23;;;;;;;24.58;5.18;;;10.20;90.60;;;;;;4936198;28;88340;-76
2023/05/26 01:46:50;;;;;;;34.30;6.55;;;10.20;90.70;;;;;;4935947;28;87652;-76
2023/05/26 01:49:17;;;;;;;31.42;5.32;;;10.20;90.90;;;;;;4934166;28;88873;-76
2023/05/26 01:51:51;;;;;;;33.85;6.18;;;10.10;90.80;;;;;;4936250;28;87789;-76
2023/05/26 01:54:18;;;;;;;;;;;10.10;90.90;;;;;;4939510;28;88704;-76
2023/05/26 01:56:45;;;;;;;34.28;5.75;;;10.10;90.90;;;;;;4941618;28;87695;-77
2023/05/26 01:59:12;;;;;;;28.52;5.38;;;10.10;90.80;;;;;;4939590;28;87182;-76
2023/05/26 02:01:37;;;;;;;27.77;4.85;;;10.00;90.90;;;;;;4938843;28;88400;-76
2023/05/26 02:04:03;;;;;;;35.70;6.40;;;10.00;90.70;;;;;;4939475;28;87861;-77
2023/05/26 02:06:29;;;;;;;27.85;5.55;;;10.00;90.90;;;;;;4927422;28;87891;-76
2023/05/26 02:08:55;;;;;;;35.95;6.68;;;10.00;91.20;;;;;;4926655;28;87676;-76
2023/05/26 02:11:21;;;;;;;30.45;5.80;;;10.00;91.00;;;;;;4939059;28;87880;-76
2023/05/26 02:13:47;;;;;;;29.50;5.30;;;9.90;91.10;;;;;;4938798;28;89558;-76
2023/05/26 02:16:13;;;;;;;28.98;5.22;;;9.90;91.20;;;;;;4939338;28;89147;-76
2023/05/26 02:18:39;;;;;;;29.75;5.32;;;9.90;91.30;;;;;;4939353;28;87787;-77
2023/05/26 02:21:05;;;;;;;31.20;4.75;;;9.80;91.20;;;;;;4940393;28;87603;-76
2023/05/26 02:23:31;;;;;;;29.95;6.38;;;9.80;91.20;;;;;;4939267;28;87938;-76
2023/05/26 02:25:56;;;;;;;40.00;5.95;;;9.80;91.20;;;;;;4939199;28;88397;-76
2023/05/26 02:28:22;;;;;;;30.50;5.43;;;9.70;91.30;;;;;;4938891;28;87674;-76
2023/05/26 02:30:48;;;;;;;28.55;5.63;;;9.70;91.30;;;;;;4939327;28;88113;-76
2023/05/26 02:33:13;;;;;;;34.45;5.10;;;9.70;91.70;;;;;;4939321;28;88498;-76
2023/05/26 02:35:39;;;;;;;28.58;5.03;;;9.70;91.80;;;;;;4939607;28;88196;-77
2023/05/26 02:38:05;;;;;;;33.63;6.47;;;9.60;91.70;;;;;;4938562;28;88780;-76
2023/05/26 02:40:30;;;;;;;26.33;6.82;;;9.60;91.90;;;;;;4939068;28;87575;-76
2023/05/26 02:42:56;;;;;;;37.00;6.50;;;9.60;91.90;;;;;;4938923;28;88239;-76
2023/05/26 02:45:21;;;;;;;26.80;5.75;;;9.50;91.80;;;;;;4938976;28;88281;-77
2023/05/26 02:47:47;;;;;;;37.25;6.47;;;9.50;91.90;;;;;;4922441;28;87897;-76
2023/05/26 02:50:13;;;;;;;37.90;6.10;;;9.50;92.00;;;;;;4938959;28;88279;-76
2023/05/26 02:52:38;;;;;;;31.98;6.93;;;9.50;92.10;;;;;;4939071;28;87814;-76
2023/05/26 02:55:05;;;;;;;30.52;5.40;;;9.50;92.10;;;;;;4938985;28;88463;-76
2023/05/26 02:57:30;;;;;;;30.50;5.40;;;9.50;92.10;;;;;;4937794;28;87773;-76
2023/05/26 02:59:56;;;;;;;31.10;5.55;;;9.40;92.20;;;;;;4939504;28;87614;-76
2023/05/26 03:02:21;;;;;;;26.42;5.55;;;9.40;92.30;;;;;;4938356;28;88855;-76
2023/05/26 03:04:47;;;;;;;34.47;6.25;;;9.40;92.20;;;;;;4937998;28;89409;-76
2023/05/26 03:07:13;;;;;;;29.42;6.40;;;9.40;92.20;;;;;;4938315;28;87858;-77
2023/05/26 03:09:38;;;;;;;34.28;5.45;;;9.30;92.30;;;;;;4938633;28;87469;-76
2023/05/26 03:12:05;;;;;;;29.92;6.53;;;9.30;92.30;;;;;;4938874;28;88515;-76
2023/05/26 03:14:31;;;;;;;34.72;6.53;;;9.30;92.60;;;;;;4938859;28;88468;-76
2023/05/26 03:16:57;;;;;;;37.20;6.50;;;9.30;92.50;;;;;;4938146;28;87470;-76
2023/05/26 03:19:22;;;;;;;24.98;5.28;;;9.20;92.70;;;;;;4938464;28;87022;-76
2023/05/26 03:21:48;;;;;;;25.73;5.45;;;9.20;92.30;;;;;;4937322;28;88101;-76
2023/05/26 03:24:13;;;;;;;28.88;5.15;;;9.20;92.80;;;;;;4938441;28;88888;-76
2023/05/26 03:26:39;;;;;;;34.83;6.20;;;9.20;92.60;;;;;;4938206;28;89065;-76
2023/05/26 03:29:05;;;;;;;32.72;6.15;;;9.20;92.80;;;;;;4937943;28;87778;-76
2023/05/26 03:31:30;;;;;;;30.08;6.13;;;9.10;92.90;;;;;;4938075;28;88239;-76
2023/05/26 03:33:56;;;;;;;30.25;6.68;;;9.10;92.90;;;;;;4938140;28;87965;-76
2023/05/26 03:36:21;;;;;;;37.03;6.85;;;9.10;92.80;;;;;;4938232;28;87736;-76
2023/05/26 03:38:47;;;;;;;36.38;6.40;;;9.10;93.00;;;;;;4937778;28;87825;-76
2023/05/26 03:41:13;;;;;;;28.45;5.88;;;9.00;93.00;;;;;;4937968;28;88226;-76
2023/05/26 03:43:39;;;;;;;36.13;6.40;;;9.00;93.00;;;;;;4938453;28;86883;-76
2023/05/26 03:46:04;;;;;;;34.45;5.78;;;9.00;93.20;;;;;;4937498;28;87586;-76
2023/05/26 03:48:30;;;;;;;33.28;5.85;;;9.00;93.10;;;;;;4937743;28;87555;-76
2023/05/26 03:50:56;;;;;;;33.58;6.07;;;9.00;93.00;;;;;;4921029;28;93027;-76
2023/05/26 03:53:21;;;;;;;32.97;6.22;;;8.90;93.10;;;;;;4937631;28;89204;-76
2023/05/26 03:55:47;;;;;;;34.33;6.53;;;9.00;93.00;;;;;;4938218;28;87686;-76
2023/05/26 03:58:13;;;;;;;27.65;6.13;;;8.90;93.10;;;;;;4937703;28;88138;-76
2023/05/26 04:00:38;;;;;;;40.50;5.97;;;8.90;93.30;;;;;;4937690;28;89370;-76
2023/05/26 04:03:04;;;;;;;38.95;7.65;;;8.90;92.90;;;;;;4938245;28;88149;-76
2023/05/26 04:05:30;;;;;;;31.38;6.32;;;9.00;93.30;;;;;;4937524;28;88415;-76
2023/05/26 04:07:56;;;;;;;37.45;6.40;;;8.90;93.30;;;;;;4937460;28;87067;-76
2023/05/26 04:10:22;;;;;;;31.50;7.10;;;9.00;93.40;;;;;;4937136;28;87722;-76
2023/05/26 04:12:47;;;;;;;33.67;6.93;;;9.00;93.30;;;;;;4936714;28;88625;-76
2023/05/26 04:15:15;;;;;;;41.08;6.65;;;9.00;93.20;;;;;;4936466;28;88649;-76
2023/05/26 04:17:41;;;;;;;43.22;6.68;;;8.90;93.30;;;;;;4938287;28;87590;-76
2023/05/26 04:20:10;;;;;;;38.55;6.65;;;8.90;93.60;;;;;;4936293;28;88316;-77
2023/05/26 04:22:37;;;;;;;31.15;5.75;;;8.90;93.20;;;;;;4935244;28;88242;-76
2023/05/26 04:25:03;;;;;;;35.42;6.57;;;9.00;93.50;;;;;;4937736;28;87718;-76
2023/05/26 04:27:29;;;;;;;29.60;5.85;;;9.00;93.60;;;;;;4937626;28;88939;-76
2023/05/26 04:29:58;;;;;;;46.25;8.10;;;9.00;93.40;;;;;;4937465;28;88668;-77
2023/05/26 04:32:25;;;;;;;32.38;5.82;;;9.00;93.60;;;;;;4937352;28;89048;-76
2023/05/26 04:34:50;;;;;;;43.33;6.47;;;9.00;93.20;;;;;;4936925;28;87140;-76
2023/05/26 04:37:16;;;;;;;28.88;6.82;;;9.10;93.40;;;;;;4936979;28;87856;-76
2023/05/26 04:39:42;;;;;;;33.25;6.53;;;9.10;93.20;;;;;;4935396;28;89658;-76
2023/05/26 04:42:08;;;;;;;34.08;6.85;;;9.10;93.20;;;;;;4937462;28;88585;-76
2023/05/26 04:44:33;;;;;;;37.00;6.93;;;9.10;93.30;;;;;;4938214;28;87562;-76
2023/05/26 04:47:00;;;;;;;38.10;7.00;;;9.10;93.00;;;;;;4936408;28;87958;-76
2023/05/26 04:49:29;;;;;;;33.58;6.45;;;9.20;93.30;;;;;;4919429;28;90019;-76
2023/05/26 04:51:57;;;;;;;49.05;6.95;;;9.20;93.10;;;;;;4936405;28;88451;-76
2023/05/26 04:54:23;;;;;;;33.55;6.55;;;9.30;93.20;;;;;;4936261;28;87836;-76
2023/05/26 04:56:49;;;;;;;40.17;6.97;;;9.30;93.00;;;;;;4920071;28;90735;-76
2023/05/26 04:59:17;;;;;;;40.33;7.15;;;9.30;92.90;;;;;;4936655;28;88710;-76
2023/05/26 05:01:44;;;;;;;31.40;7.63;;;9.30;93.00;;;;;;4936081;28;88344;-76
2023/05/26 05:04:11;;;;;;;37.78;6.65;;;9.40;92.90;;;;;;4936123;28;88505;-76
2023/05/26 05:06:36;;;;;;;37.78;6.38;;;9.40;93.10;;;;;;4935254;28;87728;-76
2023/05/26 05:09:02;;;;;;;43.42;6.40;;;9.40;92.50;;;;;;4937432;28;88334;-76
2023/05/26 05:11:28;;;;;;;36.97;5.93;;;9.50;92.90;;;;;;4936008;28;88052;-76
2023/05/26 05:13:53;;;;;;;38.75;6.32;;;9.50;92.70;;;;;;4936007;28;87984;-76
2023/05/26 05:16:21;;;;;;;33.28;7.35;;;9.60;92.50;;;;;;4935390;28;88461;-76
2023/05/26 05:18:46;;;;;;;39.33;7.00;;;9.60;92.60;;;;;;4936631;28;88561;-76
2023/05/26 05:21:12;;;;;;;37.67;6.18;;;9.60;92.40;;;;;;4937241;28;88929;-76
2023/05/26 05:23:37;;;;;;;37.00;6.32;;;9.70;92.40;;;;;;4937349;28;87820;-76
2023/05/26 05:26:03;;;;;;;34.25;6.97;;;9.80;92.20;;;;;;4936975;28;87677;-76
2023/05/26 05:28:29;;;;;;;36.22;7.03;;;9.80;92.00;;;;;;4935188;28;89632;-76
2023/05/26 05:30:55;;;;;;;40.88;6.97;;;9.90;91.90;;;;;;4919006;28;92498;-76
2023/05/26 05:33:21;;;;;;;35.45;7.07;;;10.00;91.90;;;;;;4918490;28;87568;-76
2023/05/26 05:35:46;;;;;;;30.70;6.97;;;10.00;91.40;;;;;;4937176;28;87675;-76
2023/05/26 05:38:12;;;;;;;35.90;6.90;;;10.00;91.40;;;;;;4936506;28;88974;-77
2023/05/26 05:40:38;;;;;;;36.15;7.30;;;10.10;91.30;;;;;;4936309;28;88287;-76
2023/05/26 05:43:04;;;;;;;38.35;7.47;;;10.20;91.40;;;;;;4918526;28;87354;-76
2023/05/26 05:45:31;;;;;;;32.63;6.47;;;10.20;91.20;;;;;;4936196;28;87876;-76
2023/05/26 05:47:56;;;;;;;39.80;7.50;;;10.30;91.20;;;;;;4936974;28;88487;-76
2023/05/26 05:50:23;;;;;;;40.08;7.18;;;10.40;91.00;;;;;;4936291;28;88522;-76
2023/05/26 05:52:49;;;;;;;31.10;7.10;;;10.50;90.70;;;;;;4918546;28;88565;-76
2023/05/26 05:55:15;;;;;;;35.38;6.60;;;10.50;91.00;;;;;;4918586;28;89120;-76
2023/05/26 05:57:40;;;;;;;37.03;6.95;;;10.60;90.20;;;;;;4936057;28;88785;-76
2023/05/26 06:00:09;;;;;;;39.22;7.43;;;10.60;90.60;;;;;;4936153;28;87649;-76
2023/05/26 06:02:35;;;;;;;43.95;7.55;;;10.60;90.30;;;;;;4936348;28;87542;-76
2023/05/26 06:05:01;;;;;;;28.52;5.75;;;10.70;90.40;;;;;;4935329;28;88410;-76
2023/05/26 06:07:27;;;;;;;42.60;8.27;;;10.80;90.20;;;;;;4934347;28;90175;-77
2023/05/26 06:09:52;;;;;;;36.53;7.60;;;10.90;90.20;;;;;;4935271;28;89667;-76
2023/05/26 06:12:18;;;;;;;41.17;8.50;;;11.10;90.00;;;;;;4935466;28;87555;-76
2023/05/26 06:14:44;;;;;;;39.85;9.70;;;11.20;89.90;;;;;;4936984;28;87876;-76
2023/05/26 06:17:10;;;;;;;35.78;8.63;;;11.30;90.00;;;;;;4935692;28;89266;-79
2023/05/26 06:19:35;;;;;;;36.05;8.80;;;11.50;88.50;;;;;;4935572;28;89594;-78
2023/05/26 06:22:01;;;;;;;47.85;10.52;;;11.60;88.30;;;;;;4918598;28;87297;-78
2023/05/26 06:24:26;;;;;;;43.08;10.60;;;11.70;86.80;;;;;;4934654;28;87978;-78
2023/05/26 06:26:52;;;;;;;37.42;10.90;;;11.70;86.20;;;;;;4936146;28;88483;-78
2023/05/26 06:29:18;;;;;;;33.65;10.02;;;11.80;86.70;;;;;;4934474;28;88886;-78
2023/05/26 06:31:43;;;;;;;50.58;12.93;;;11.90;85.80;;;;;;4935238;28;87406;-78
2023/05/26 06:34:09;;;;;;;34.15;11.50;;;11.90;85.10;;;;;;4934642;28;88022;-78
2023/05/26 06:36:35;;;;;;;37.25;11.95;;;12.00;84.30;;;;;;4933865;28;88151;-78
2023/05/26 06:39:01;;;;;;;43.05;13.50;;;12.00;84.90;;;;;;4936264;28;88556;-78
2023/05/26 06:41:27;;;;;;;38.53;12.23;;;12.00;83.90;;;;;;4920091;28;88481;-78
2023/05/26 06:43:52;;;;;;;39.42;12.50;;;12.10;84.70;;;;;;4919759;28;90784;-78
2023/05/26 06:46:18;;;;;;;42.00;13.30;;;12.20;84.10;;;;;;4920854;28;91615;-78
2023/05/26 06:48:44;;;;;;;41.25;12.65;;;12.20;84.70;;;;;;4937952;28;88197;-78
2023/05/26 06:51:10;;;;;;;48.58;13.18;;;12.30;84.00;;;;;;4938317;28;87909;-78
2023/05/26 06:53:37;;;;;;;36.88;12.77;;;12.40;83.00;;;;;;4921541;28;88463;-78
2023/05/26 06:56:03;;;;;;;46.03;13.52;;;12.40;84.20;;;;;;4938028;28;88436;-78
2023/05/26 06:58:29;;;;;;;38.30;12.88;;;12.50;83.60;;;;;;4937871;28;88454;-78
2023/05/26 07:01:01;;;;;;;38.95;13.05;;;12.60;83.10;;;;;;4937709;28;87692;-78
2023/05/26 07:03:28;;;;;;;41.67;12.85;;;12.80;82.10;;;;;;4935525;28;87701;-78
2023/05/26 07:05:54;;;;;;;47.28;13.52;;;12.90;81.40;;;;;;4933770;28;90198;-78
2023/05/26 07:08:20;;;;;;;43.05;12.32;;;13.10;80.70;;;;;;4937170;28;89073;-78
2023/05/26 07:10:46;;;;;;;38.65;11.90;;;13.20;80.50;;;;;;4934101;28;87713;-78
2023/05/26 07:13:13;;;;;;;46.40;11.82;;;13.40;81.20;;;;;;4937109;28;87402;-78
2023/05/26 07:15:39;;;;;;;37.28;11.55;;;13.50;78.90;;;;;;4936289;28;89052;-78
2023/05/26 07:18:05;;;;;;;40.33;12.20;;;13.60;79.50;;;;;;4937971;28;88816;-78
2023/05/26 07:20:30;;;;;;;42.72;12.90;;;13.90;78.90;;;;;;4937175;28;87691;-79
2023/05/26 07:22:56;;;;;;;40.42;13.07;;;14.20;79.00;;;;;;4922194;28;90815;-80
2023/05/26 07:25:21;;;;;;;39.05;12.60;;;14.30;77.20;;;;;;4937441;28;88679;-80
2023/05/26 07:27:47;;;;;;;39.42;12.02;;;14.30;76.30;;;;;;4921922;28;91509;-79
2023/05/26 07:30:13;;;;;;;41.90;14.27;;;14.40;76.80;;;;;;4920475;28;88829;-80
2023/05/26 07:32:38;;;;;;;42.50;12.52;;;14.20;74.70;;;;;;4932648;28;87903;-79
2023/05/26 07:35:04;;;;;;;39.28;12.63;;;14.20;76.80;;;;;;4935089;28;88555;-79
2023/05/26 07:37:30;;;;;;;32.13;11.00;;;14.30;76.20;;;;;;4934241;28;88968;-79
2023/05/26 07:39:56;;;;;;;37.75;9.98;;;14.40;76.30;;;;;;4918053;28;87800;-79
2023/05/26 07:42:21;;;;;;;38.85;10.50;;;14.40;75.00;;;;;;4917745;28;90231;-79
2023/05/26 07:44:47;;;;;;;34.10;10.07;;;14.50;74.40;;;;;;4919950;28;90946;-80
2023/05/26 07:47:13;;;;;;;32.47;10.48;;;14.60;75.50;;;;;;4941517;28;90661;-80
2023/05/26 07:49:39;;;;;;;42.63;11.18;;;14.60;74.00;;;;;;4943642;28;87841;-80
2023/05/26 07:52:05;;;;;;;30.45;9.55;;;14.50;74.20;;;;;;4934907;28;87618;-81
2023/05/26 07:54:31;;;;;;;29.23;9.55;;;14.60;74.40;;;;;;4941547;28;89796;-81
2023/05/26 07:56:57;;;;;;;39.75;10.88;;;14.80;74.50;;;;;;4940243;28;93115;-78
2023/05/26 07:59:23;;;;;;;32.35;9.55;;;15.00;74.50;;;;;;4937087;28;87391;-79
2023/05/26 08:01:48;;;;;;;30.77;8.48;;;15.20;73.00;;;;;;4936257;28;87921;-79
2023/05/26 08:04:14;;;;;;;29.77;8.20;;;15.20;73.30;;;;;;4935642;28;89224;-79
2023/05/26 08:06:41;;;;;;;43.38;8.77;;;15.30;72.10;;;;;;4936803;28;88968;-79
2023/05/26 08:09:06;;;;;;;30.70;7.72;;;15.40;72.30;;;;;;4936170;28;93441;-79
2023/05/26 08:11:32;;;;;;;32.22;9.05;;;15.60;72.10;;;;;;4917989;28;89500;-78
2023/05/26 08:13:58;;;;;;;31.77;8.15;;;15.80;72.40;;;;;;4919662;28;90208;-79
2023/05/26 08:45:38;;;;;;;29.77;7.53;;;16.70;68.60;;;;;;5038443;22;89692;-86
2023/05/26 08:48:08;;;;;;;38.15;8.55;;;16.90;67.40;;;;;;4936949;28;88823;-85
2023/05/26 08:50:34;;;;;;;29.05;7.68;;;17.00;67.20;;;;;;4937933;28;87559;-89
2023/05/26 08:53:01;;;;;;;26.02;7.32;;;17.10;67.10;;;;;;4936865;28;89668;-88
2023/05/26 08:55:27;;;;;;;31.73;6.22;;;17.30;66.80;;;;;;4936631;28;91052;-92
2023/05/26 08:57:55;;;;;;;31.90;7.72;;;17.60;65.90;;;;;;4936275;28;89600;-89
2023/05/26 09:00:21;;;;;;;32.42;7.25;;;17.70;65.50;;;;;;4937273;28;88096;-87
2023/05/26 09:02:47;;;;;;;29.02;7.30;;;17.60;66.00;;;;;;4935603;28;90510;-88
2023/05/26 09:05:13;;;;;;;40.53;7.78;;;17.50;65.80;;;;;;4938985;28;88309;-88
2023/05/26 09:07:39;;;;;;;30.08;6.70;;;17.70;65.10;;;;;;4935134;28;90134;-88
2023/05/26 09:10:30;;;;;;;33.17;7.15;;;18.00;65.40;;;;;;4935946;28;88523;-88
2023/05/26 09:13:05;;;;;;;32.75;7.20;;;18.30;64.00;;;;;;4935776;28;90076;-87
2023/05/26 09:15:31;;;;;;;24.73;6.30;;;18.60;64.50;;;;;;4935004;28;91786;-87
2023/05/26 09:18:13;;;;;;;29.55;7.35;;;18.70;63.10;;;;;;4935430;28;91264;-88
2023/05/26 09:20:40;;;;;;;29.35;7.13;;;18.90;63.60;;;;;;4936618;28;87553;-87
2023/05/26 09:23:06;;;;;;;26.67;6.43;;;19.10;62.20;;;;;;4936238;28;89046;-87
2023/05/26 09:25:40;;;;;;;28.15;7.40;;;19.30;61.90;;;;;;4935498;28;92398;-88
2023/05/26 09:28:11;;;;;;;23.35;6.35;;;19.40;61.30;;;;;;4927512;28;91032;-87
2023/05/26 09:30:44;;;;;;;27.30;5.43;;;19.60;62.00;;;;;;4935658;28;87721;-86
2023/05/26 09:33:12;;;;;;;26.85;6.50;;;19.90;61.70;;;;;;4935799;28;89123;-87
2023/05/26 09:35:39;;;;;;;28.45;6.72;;;20.10;60.90;;;;;;4935274;28;91594;-86
2023/05/26 09:38:07;;;;;;;27.83;6.28;;;20.20;60.20;;;;;;4936346;28;92532;-86
2023/05/26 09:40:33;;;;;;;30.08;6.40;;;20.20;59.30;;;;;;4934642;28;87660;-85
2023/05/26 09:43:00;;;;;;;25.67;6.38;;;20.10;59.90;;;;;;4935660;28;90350;-84
2023/05/26 09:45:28;;;;;;;23.70;6.20;;;20.00;59.80;;;;;;4934254;28;91495;-84
2023/05/26 09:47:57;;;;;;;26.10;5.88;;;20.10;59.20;;;;;;4934660;28;91700;-85
2023/05/26 09:50:24;;;;;;;28.85;6.50;;;20.20;59.30;;;;;;4928128;28;87705;-85
2023/05/26 09:52:50;;;;;;;25.77;5.65;;;20.20;59.50;;;;;;4933583;28;90769;-84
2023/05/26 09:55:17;;;;;;;30.13;6.50;;;20.40;60.00;;;;;;4934169;28;91470;-84
2023/05/26 09:57:45;;;;;;;30.63;7.40;;;20.60;58.10;;;;;;4935491;28;90233;-84
2023/05/26 10:00:16;;;;;;;24.83;5.45;;;20.80;58.10;;;;;;4936262;28;89032;-83
2023/05/26 10:02:43;;;;;;;27.60;6.57;;;21.00;59.40;;;;;;4936497;28;90558;-83
2023/05/26 10:05:09;;;;;;;26.05;5.82;;;21.20;57.10;;;;;;4935561;28;90376;-83
2023/05/26 10:07:36;;;;;;;29.27;6.20;;;21.20;54.80;;;;;;4934274;28;90264;-83
2023/05/26 10:10:03;;;;;;;25.75;6.47;;;21.10;56.90;;;;;;4937172;28;87586;-83
2023/05/26 10:12:30;;;;;;;25.85;6.15;;;21.10;56.60;;;;;;4935957;28;89882;-82
2023/05/26 10:14:56;;;;;;;26.25;5.78;;;21.40;56.80;;;;;;4937398;28;91498;-84
2023/05/26 10:17:23;;;;;;;22.38;5.63;;;21.80;55.00;;;;;;4937613;28;89795;-84
2023/05/26 10:19:50;;;;;;;22.25;5.47;;;22.00;56.10;;;;;;4931586;28;87527;-83
2023/05/26 10:22:33;;;;;;;22.83;6.18;;;22.10;55.30;;;;;;4940432;28;88233;-83
2023/05/26 10:25:03;;;;;;;23.60;5.90;;;22.20;55.40;;;;;;4939639;28;89087;-83
2023/05/26 10:27:40;;;;;;;25.08;5.53;;;22.00;55.00;;;;;;4939960;28;91758;-82
2023/05/26 10:30:08;;;;;;;23.70;6.53;;;22.20;56.10;;;;;;4938950;28;87584;-80
2023/05/26 10:32:51;;;;;;;25.45;6.00;;;22.60;54.00;;;;;;4937894;28;87773;-82
2023/05/26 10:35:27;;;;;;;25.55;6.50;;;22.70;52.20;;;;;;4939769;28;88873;-84
2023/05/26 10:38:11;;;;;;;25.98;6.32;;;22.70;53.10;;;;;;4930943;28;91194;-83
2023/05/26 10:40:41;;;;;;;20.85;6.10;;;22.70;53.50;;;;;;4938005;28;87822;-84
2023/05/26 10:43:22;;;;;;;27.13;5.97;;;23.00;54.20;;;;;;4939660;28;86463;-84
2023/05/26 10:45:53;;;;;;;19.35;5.07;;;23.30;52.80;;;;;;4937922;28;91441;-84
2023/05/26 10:48:19;;;;;;;28.55;6.43;;;23.50;52.70;;;;;;4931784;28;90861;-87
2023/05/26 10:51:00;;;;;;;20.38;5.70;;;23.60;52.30;;;;;;4937466;28;88671;-89
2023/05/26 10:53:30;;;;;;;25.65;6.75;;;23.70;49.40;;;;;;4932878;28;91362;-84
2023/05/26 10:56:02;;;;;;;21.98;5.57;;;23.80;51.50;;;;;;4938172;28;90636;-83
2023/05/26 10:58:37;;;;;;;31.52;6.68;;;23.50;51.60;;;;;;4946629;28;90291;-79
2023/05/26 11:01:09;;;;;;;24.42;5.95;;;23.30;50.80;;;;;;4948183;28;87679;-85
2023/05/26 11:03:40;;;;;;;31.02;6.43;;;23.40;52.00;;;;;;4937764;28;90141;-83
2023/05/26 11:06:06;;;;;;;20.25;5.40;;;23.70;52.00;;;;;;4938913;28;89123;-85
2023/05/26 11:08:37;;;;;;;22.88;5.90;;;24.10;50.40;;;;;;4937526;28;90916;-85
2023/05/26 11:11:05;;;;;;;22.67;6.18;;;24.20;50.70;;;;;;4945348;28;87707;-85
2023/05/26 11:13:47;;;;;;;21.88;6.20;;;24.20;50.90;;;;;;4953617;28;89282;-85
2023/05/26 11:16:21;;;;;;;24.88;6.63;;;24.50;52.60;;;;;;4928119;28;91787;-78
2023/05/26 11:18:51;;;;;;;17.70;4.95;;;24.80;49.50;;;;;;4932080;28;90508;-79
2023/05/26 11:21:31;;;;;;;20.77;6.15;;;25.00;50.60;;;;;;4935578;28;87931;-79
2023/05/26 11:23:58;;;;;;;29.80;6.53;;;24.90;48.60;;;;;;4936493;28;89275;-80
2023/05/26 11:26:26;;;;;;;23.65;5.68;;;24.20;46.30;;;;;;4937550;28;88266;-79
2023/05/26 11:28:52;;;;;;;26.25;6.20;;;24.10;51.20;;;;;;4937881;28;89037;-78
2023/05/26 11:31:21;;;;;;;26.70;6.00;;;24.50;50.60;;;;;;4938416;28;87737;-79
2023/05/26 11:33:47;;;;;;;24.13;6.25;;;24.90;50.40;;;;;;4937429;28;88970;-79
2023/05/26 11:36:17;;;;;;;21.73;5.45;;;25.00;49.00;;;;;;4938417;28;88709;-85
2023/05/26 11:38:45;;;;;;;23.88;5.97;;;25.00;47.00;;;;;;4932025;28;91263;-82
2023/05/26 11:41:12;;;;;;;22.60;6.25;;;25.30;48.90;;;;;;4936834;28;88906;-77
2023/05/26 11:43:39;;;;;;;20.13;5.45;;;25.60;47.70;;;;;;4938219;28;87982;-76
2023/05/26 11:46:08;;;;;;;21.42;5.60;;;25.90;47.90;;;;;;4937074;28;88108;-75
2023/05/26 11:48:41;;;;;;;23.35;5.82;;;26.10;48.20;;;;;;4936922;28;88590;-76
2023/05/26 11:51:17;;;;;;;27.42;6.75;;;26.50;47.50;;;;;;4938513;28;87742;-76
2023/05/26 11:53:45;;;;;;;22.92;5.63;;;26.20;45.60;;;;;;4936816;28;89619;-76
2023/05/26 11:56:12;;;;;;;23.45;5.72;;;26.20;45.80;;;;;;4936275;28;89305;-77
2023/05/26 11:58:46;;;;;;;21.50;5.22;;;26.20;46.10;;;;;;4937666;28;88930;-76
2023/05/26 12:01:12;;;;;;;26.60;5.35;;;26.40;46.40;;;;;;4937372;28;87575;-77
2023/05/26 12:03:41;;;;;;;23.67;5.53;;;26.80;44.80;;;;;;4938419;28;87710;-76
2023/05/26 12:06:18;;;;;;;17.88;5.35;;;26.80;45.40;;;;;;4937803;28;89547;-76
2023/05/26 12:08:46;;;;;;;27.17;5.90;;;27.00;44.10;;;;;;4938033;28;89419;-76
2023/05/26 12:11:22;;;;;;;19.40;4.93;;;27.10;44.10;;;;;;4935886;28;87560;-76
2023/05/26 12:14:02;;;;;;;21.70;5.47;;;27.40;45.20;;;;;;4938019;28;87627;-76
2023/05/26 12:16:36;;;;;;;16.88;4.97;;;28.00;44.40;;;;;;4937623;28;89336;-76
2023/05/26 12:19:12;;;;;;;17.00;4.70;;;28.50;44.70;;;;;;4937703;28;87432;-76
2023/05/26 12:21:45;;;;;;;19.67;5.78;;;28.70;42.70;;;;;;4937958;28;87710;-76
2023/05/26 12:24:11;;;;;;;20.73;5.00;;;28.80;40.60;;;;;;4935607;28;88899;-76
2023/05/26 12:26:37;;;;;;;21.50;5.38;;;28.80;41.70;;;;;;4936099;28;88123;-76
2023/05/26 12:29:14;;;;;;;20.70;5.18;;;28.30;41.40;;;;;;4937154;28;88189;-76
2023/05/26 12:31:45;;;;;;;20.23;5.03;;;28.30;42.70;;;;;;4937162;28;88817;-76
2023/05/26 12:34:21;;;;;;;23.65;5.65;;;28.50;42.00;;;;;;4937651;28;87907;-76
2023/05/26 12:36:47;;;;;;;20.20;4.95;;;28.70;41.30;;;;;;4937165;28;89101;-76
2023/05/26 12:39:14;;;;;;;16.05;4.70;;;28.90;43.30;;;;;;4936948;28;87581;-77
2023/05/26 12:41:41;;;;;;;17.75;4.97;;;29.00;41.40;;;;;;4936875;28;87748;-76
2023/05/26 12:44:07;;;;;;;23.08;5.78;;;28.70;41.70;;;;;;4936900;28;88054;-76
2023/05/26 12:46:34;;;;;;;19.58;5.25;;;28.90;39.60;;;;;;4937008;28;87856;-76
2023/05/26 12:48:59;;;;;;;16.35;4.70;;;29.00;41.10;;;;;;4937980;28;87216;-76
2023/05/26 12:51:25;;;;;;;12.80;4.07;;;29.30;41.30;;;;;;4937061;28;87367;-76
2023/05/26 12:53:51;;;;;;;19.05;4.78;;;29.40;39.00;;;;;;4937627;28;87939;-76
2023/05/26 12:56:18;;;;;;;17.30;4.50;;;29.40;40.60;;;;;;4934057;28;91789;-76
2023/05/26 12:58:43;;;;;;;15.45;4.65;;;29.40;38.30;;;;;;4936958;28;89005;-76
2023/05/26 13:01:10;;;;;;;14.43;3.80;;;29.40;39.10;;;;;;4937543;28;87687;-77
2023/05/26 13:03:37;;;;;;;15.50;4.65;;;29.90;40.80;;;;;;4937470;28;87701;-76
2023/05/26 13:06:04;;;;;;;17.02;3.75;;;30.40;38.60;;;;;;4936957;28;88800;-76
2023/05/26 13:08:30;;;;;;;15.57;4.13;;;30.60;38.60;;;;;;4937193;28;88793;-76